Aeneas, Washington
Current Conditions -  °F | °C
As of 10:53 PM on Saturday 25 Oct 2014 (Local Time) from KOMK Reporting Station
Light Rain Light Rain  
Wind Chill: 54°   Ceiling: 8000
Heat Index: 54°   Visibility: 10mi
Dew Point: 46°   Wind: 15mph
Humidity: 75%   Direction: 180°S
Pressure: 29.43"   Gusts: NA
Location:  48.6708°N, 119.278°W
Report Text: KOMK 260553Z AUTO 18013KT 10SM -RA FEW031 SCT039 BKN080 12/08 A2943 RMK AO2 RAB43 SLP968 P0000 60003 T01220078 10122 20089 53004
Loading
Personal Weather Stations






























Interactive Weather Map
Tropical Storm Tracking
New forecast layout! Learn more

10-Day Weather Forecast

Advertisements
Track Severe Weather on mobile